createdAt,value
2023-08-29T00:00:11.571Z,13.48
2023-08-29T00:03:04.635Z,12.75
2023-08-29T00:05:50.084Z,16.25
2023-08-29T00:08:35.781Z,16.92
2023-08-29T00:11:22.289Z,14.70
2023-08-29T00:14:07.590Z,14.18
2023-08-29T00:16:53.036Z,14.13
2023-08-29T00:19:38.962Z,16.25
2023-08-29T00:22:24.859Z,24.20
2023-08-29T00:25:10.338Z,17.85
2023-08-29T00:27:55.746Z,16.63
2023-08-29T00:30:44.574Z,19.38
2023-08-29T00:33:31.192Z,16.35
2023-08-29T00:36:18.668Z,16.50
2023-08-29T00:39:05.091Z,17.08
2023-08-29T00:41:50.977Z,14.23
2023-08-29T00:44:36.828Z,17.38
2023-08-29T00:47:22.818Z,11.88
2023-08-29T00:50:09.860Z,15.13
2023-08-29T00:52:59.656Z,18.33
2023-08-29T00:55:45.176Z,13.63
2023-08-29T00:58:31.418Z,13.02
2023-08-29T01:01:18.584Z,15.00
2023-08-29T01:04:05.323Z,13.95
2023-08-29T01:06:51.512Z,14.20
2023-08-29T01:09:36.862Z,14.48
2023-08-29T01:12:36.566Z,12.30
2023-08-29T01:15:28.851Z,16.85
2023-08-29T01:18:17.121Z,14.52
2023-08-29T01:21:16.123Z,20.95
2023-08-29T01:24:22.032Z,17.75
2023-08-29T01:27:09.259Z,12.73
2023-08-29T01:29:57.310Z,16.85
2023-08-29T01:32:46.095Z,9.50
2023-08-29T01:35:32.778Z,11.90
2023-08-29T01:38:18.979Z,13.68
2023-08-29T01:41:05.439Z,10.85
2023-08-29T01:43:53.158Z,13.75
2023-08-29T01:46:39.566Z,16.60
2023-08-29T01:49:26.264Z,10.38
2023-08-29T01:52:11.928Z,12.18
2023-08-29T01:54:59.786Z,11.38
2023-08-29T01:57:47.664Z,11.65
2023-08-29T02:00:34.358Z,16.65
2023-08-29T02:03:24.506Z,15.95
2023-08-29T02:06:12.312Z,14.75
2023-08-29T02:08:57.643Z,20.38
2023-08-29T02:11:43.659Z,9.30
2023-08-29T02:14:29.612Z,14.15
2023-08-29T02:17:15.582Z,11.32
2023-08-29T02:20:01.312Z,18.63
2023-08-29T02:22:46.937Z,18.45
2023-08-29T02:25:32.987Z,17.00
2023-08-29T02:28:19.044Z,16.75
2023-08-29T02:31:11.492Z,12.20
2023-08-29T02:33:57.258Z,14.18
2023-08-29T02:36:43.868Z,11.93
2023-08-29T02:39:30.205Z,12.23
2023-08-29T02:42:15.970Z,14.05
2023-08-29T02:45:01.765Z,13.52
2023-08-29T02:47:47.744Z,10.63
2023-08-29T02:50:35.046Z,9.63
2023-08-29T02:53:21.919Z,12.55
2023-08-29T02:56:07.296Z,9.18
2023-08-29T02:58:53.487Z,13.75
2023-08-29T03:01:39.611Z,11.65
2023-08-29T03:04:25.270Z,11.35
2023-08-29T03:07:11.110Z,16.85
2023-08-29T03:09:57.060Z,14.63
2023-08-29T03:12:42.973Z,12.57
2023-08-29T03:15:35.837Z,17.02
2023-08-29T03:18:21.190Z,13.07
2023-08-29T03:21:10.800Z,13.50
2023-08-29T03:23:56.902Z,14.18
2023-08-29T03:26:42.279Z,14.05
2023-08-29T03:29:27.679Z,15.95
2023-08-29T03:32:14.006Z,11.90
2023-08-29T03:34:59.869Z,12.65
2023-08-29T03:37:46.116Z,10.85
2023-08-29T03:40:31.853Z,14.65
2023-08-29T03:43:17.433Z,22.17
2023-08-29T03:46:07.663Z,23.40
2023-08-29T03:48:53.253Z,22.38
2023-08-29T03:51:38.700Z,12.70
2023-08-29T03:54:24.187Z,11.43
2023-08-29T03:57:09.796Z,13.38
2023-08-29T03:59:55.462Z,12.38
2023-08-29T04:02:41.541Z,11.50
2023-08-29T04:05:28.568Z,18.75
2023-08-29T04:08:13.842Z,15.30
2023-08-29T04:11:04.670Z,11.52
2023-08-29T04:13:51.047Z,17.13
2023-08-29T04:16:37.558Z,14.65
2023-08-29T04:19:24.214Z,16.10
2023-08-29T04:22:09.905Z,9.63
2023-08-29T04:24:55.328Z,14.70
2023-08-29T04:27:41.136Z,14.43
2023-08-29T04:30:26.720Z,9.98
2023-08-29T04:33:12.309Z,15.18
2023-08-29T04:35:58.062Z,14.85
2023-08-29T04:38:46.396Z,15.52
2023-08-29T04:41:31.757Z,12.40
2023-08-29T04:44:17.611Z,12.55
2023-08-29T04:47:05.094Z,22.98
2023-08-29T04:49:51.060Z,14.68
2023-08-29T04:52:37.705Z,15.05
2023-08-29T04:55:23.405Z,17.20
2023-08-29T04:58:09.940Z,29.92
2023-08-29T05:00:56.260Z,16.85
2023-08-29T05:03:42.722Z,15.75
2023-08-29T05:06:28.417Z,12.15
2023-08-29T05:09:14.774Z,16.60
2023-08-29T05:12:00.650Z,21.58
2023-08-29T05:14:46.356Z,16.88
2023-08-29T05:17:32.038Z,14.40
2023-08-29T05:20:18.490Z,14.73
2023-08-29T05:23:04.351Z,10.40
2023-08-29T05:25:50.752Z,13.35
2023-08-29T05:28:36.394Z,15.68
2023-08-29T05:31:22.850Z,13.80
2023-08-29T05:34:09.002Z,6.97
2023-08-29T05:36:55.046Z,12.93
2023-08-29T05:39:40.934Z,11.00
2023-08-29T05:42:28.548Z,21.58
2023-08-29T05:45:16.603Z,14.93
2023-08-29T05:48:03.145Z,12.88
2023-08-29T05:50:52.551Z,17.85
2023-08-29T05:53:38.476Z,15.43
2023-08-29T05:56:24.583Z,11.55
2023-08-29T05:59:10.045Z,19.38
2023-08-29T06:01:55.870Z,13.93
2023-08-29T06:04:41.697Z,11.77
2023-08-29T06:07:27.787Z,13.13
2023-08-29T06:10:13.879Z,12.00
2023-08-29T06:12:59.995Z,10.40
2023-08-29T06:15:46.691Z,11.75
2023-08-29T06:18:34.552Z,15.90
2023-08-29T06:21:22.000Z,8.20
2023-08-29T06:24:08.321Z,13.95
2023-08-29T06:26:54.012Z,10.60
2023-08-29T06:29:40.426Z,12.90
2023-08-29T06:32:27.214Z,11.95
2023-08-29T06:35:12.905Z,12.63
2023-08-29T06:37:58.138Z,12.18
2023-08-29T06:40:44.005Z,14.10
2023-08-29T06:43:31.301Z,12.30
2023-08-29T06:46:17.495Z,17.77
2023-08-29T06:49:03.769Z,14.38
2023-08-29T06:51:51.220Z,10.93
2023-08-29T06:54:37.758Z,12.57
2023-08-29T06:57:23.282Z,11.52
2023-08-29T07:00:12.181Z,12.80
2023-08-29T07:02:57.796Z,8.85
2023-08-29T07:05:43.084Z,10.43
2023-08-29T07:08:28.589Z,9.52
2023-08-29T07:11:15.255Z,13.90
2023-08-29T07:14:00.840Z,14.32
2023-08-29T07:16:53.558Z,9.18
2023-08-29T07:19:50.034Z,22.38
2023-08-29T07:22:41.782Z,14.60
2023-08-29T07:25:40.175Z,21.50
2023-08-29T07:28:26.369Z,18.67
2023-08-29T07:31:12.275Z,23.05
2023-08-29T07:33:57.652Z,19.98
2023-08-29T07:36:44.382Z,25.88
2023-08-29T07:39:29.879Z,33.80
2023-08-29T07:42:15.661Z,20.45
2023-08-29T07:45:01.561Z,26.75
2023-08-29T07:47:46.916Z,29.02
2023-08-29T07:50:32.405Z,24.63
2023-08-29T07:53:17.890Z,14.57
2023-08-29T07:56:04.425Z,25.83
2023-08-29T07:58:50.680Z,17.00
2023-08-29T08:01:36.523Z,12.93
2023-08-29T08:04:22.366Z,16.42
2023-08-29T08:07:08.105Z,15.85
2023-08-29T08:09:53.424Z,16.38
2023-08-29T08:12:41.292Z,14.65
2023-08-29T08:15:26.803Z,15.85
2023-08-29T08:18:12.374Z,10.15
2023-08-29T08:20:57.820Z,14.70
2023-08-29T08:23:43.348Z,11.93
2023-08-29T08:26:28.813Z,17.02
2023-08-29T08:29:14.362Z,12.18
2023-08-29T08:32:00.174Z,20.20
2023-08-29T08:34:46.031Z,11.50
2023-08-29T08:37:36.230Z,7.63
2023-08-29T08:40:22.045Z,9.98
2023-08-29T08:43:10.788Z,9.48
2023-08-29T08:45:57.900Z,14.18
2023-08-29T08:48:43.962Z,14.65
2023-08-29T08:51:31.861Z,9.95
2023-08-29T08:54:17.390Z,12.93
2023-08-29T08:57:02.686Z,11.93
2023-08-29T08:59:48.228Z,8.70
2023-08-29T09:02:35.304Z,15.13
2023-08-29T09:05:22.012Z,14.23
2023-08-29T09:08:08.186Z,13.65
2023-08-29T09:10:54.580Z,8.13
2023-08-29T09:13:50.048Z,7.88
2023-08-29T09:16:39.373Z,9.43
2023-08-29T09:19:26.057Z,8.05
2023-08-29T09:22:12.003Z,6.47
2023-08-29T09:25:04.312Z,9.45
2023-08-29T09:27:50.386Z,8.68
2023-08-29T09:30:42.652Z,9.48
2023-08-29T09:33:28.810Z,3.80
2023-08-29T09:36:14.641Z,5.30
2023-08-29T09:39:00.188Z,8.77
2023-08-29T09:41:59.535Z,8.57
2023-08-29T09:44:45.206Z,4.80
2023-08-29T09:47:30.637Z,6.47
2023-08-29T09:50:16.358Z,9.70
2023-08-29T09:53:02.904Z,7.38
2023-08-29T09:55:55.282Z,8.23
2023-08-29T09:58:42.646Z,4.80
2023-08-29T10:01:29.073Z,5.30
2023-08-29T10:04:22.270Z,11.57
2023-08-29T10:07:13.442Z,12.25
2023-08-29T10:10:00.372Z,8.07
2023-08-29T10:12:47.296Z,9.32
2023-08-29T10:15:38.646Z,10.02
2023-08-29T10:18:27.128Z,6.82
2023-08-29T10:21:13.966Z,8.68
2023-08-29T10:24:00.856Z,5.50
2023-08-29T10:26:47.134Z,5.05
2023-08-29T10:29:33.858Z,8.45
2023-08-29T10:32:21.095Z,8.77
2023-08-29T10:35:07.839Z,7.47
2023-08-29T10:37:54.041Z,14.15
2023-08-29T10:40:40.374Z,11.93
2023-08-29T10:43:27.288Z,8.35
2023-08-29T10:46:15.402Z,5.05
2023-08-29T10:49:00.665Z,9.55
2023-08-29T10:52:12.595Z,16.58
2023-08-29T10:55:22.465Z,10.40
2023-08-29T10:58:38.874Z,10.07
2023-08-29T11:01:28.391Z,8.55
2023-08-29T11:04:17.624Z,11.43
2023-08-29T11:07:03.675Z,7.68
2023-08-29T11:09:49.694Z,7.85
2023-08-29T11:12:35.438Z,12.02
2023-08-29T11:15:22.381Z,15.90
2023-08-29T11:18:28.381Z,7.57
2023-08-29T11:21:18.981Z,10.07
2023-08-29T11:26:58.544Z,7.57
2023-08-29T11:29:45.099Z,11.77
2023-08-29T11:32:31.593Z,11.88
2023-08-29T11:35:17.300Z,10.48
2023-08-29T11:38:03.177Z,18.52
2023-08-29T11:40:56.205Z,9.25
2023-08-29T11:44:33.966Z,9.68
2023-08-29T11:47:02.777Z,14.80
2023-08-29T11:49:57.144Z,13.65
2023-08-29T11:52:43.081Z,15.23
2023-08-29T11:55:32.421Z,11.65
2023-08-29T11:58:18.848Z,12.65
2023-08-29T12:01:06.115Z,9.65
2023-08-29T12:03:52.233Z,6.07
2023-08-29T12:06:38.025Z,8.55
2023-08-29T12:09:24.584Z,12.80
2023-08-29T12:12:33.933Z,14.35
2023-08-29T12:15:30.900Z,17.55
2023-08-29T12:18:26.597Z,14.80
2023-08-29T12:21:19.908Z,8.35
2023-08-29T12:24:11.044Z,9.02
2023-08-29T12:26:56.593Z,9.88
2023-08-29T12:29:42.455Z,9.70
2023-08-29T12:32:29.452Z,7.55
2023-08-29T12:35:16.972Z,12.77
2023-08-29T12:38:03.401Z,14.32
2023-08-29T12:40:48.979Z,12.30
2023-08-29T12:43:34.219Z,7.05
2023-08-29T12:46:20.593Z,20.25
2023-08-29T12:49:06.363Z,12.75
2023-08-29T12:51:52.146Z,6.00
2023-08-29T12:54:38.268Z,9.45
2023-08-29T12:57:24.228Z,7.63
2023-08-29T13:00:11.592Z,17.33
2023-08-29T13:02:58.704Z,18.15
2023-08-29T13:05:44.925Z,19.17
2023-08-29T13:08:30.409Z,19.60
2023-08-29T13:11:16.124Z,15.93
2023-08-29T13:14:02.224Z,18.58
2023-08-29T13:16:47.997Z,16.30
2023-08-29T13:19:34.885Z,19.30
2023-08-29T13:22:22.093Z,19.67
2023-08-29T13:25:11.842Z,16.33
2023-08-29T13:27:58.988Z,19.63
2023-08-29T13:30:44.877Z,23.38
2023-08-29T13:33:32.228Z,12.05
2023-08-29T13:36:18.047Z,19.60
2023-08-29T13:39:03.884Z,19.98
2023-08-29T13:41:49.956Z,14.45
2023-08-29T13:44:36.209Z,19.73
2023-08-29T13:47:21.947Z,19.40
2023-08-29T13:50:08.858Z,12.70
2023-08-29T13:52:57.163Z,16.33
2023-08-29T13:55:43.429Z,11.43
2023-08-29T13:58:29.280Z,21.85
2023-08-29T14:01:14.838Z,14.80
2023-08-29T14:04:00.590Z,15.93
2023-08-29T14:06:45.905Z,25.25
2023-08-29T14:09:31.603Z,12.20
2023-08-29T14:12:17.109Z,20.65
2023-08-29T14:15:03.009Z,19.38
2023-08-29T14:17:51.798Z,27.55
2023-08-29T14:20:45.671Z,18.10
2023-08-29T14:23:31.341Z,17.85
2023-08-29T14:26:17.025Z,25.83
2023-08-29T14:29:02.721Z,14.82
2023-08-29T14:31:48.564Z,17.63
2023-08-29T14:34:34.107Z,18.40
2023-08-29T14:37:19.716Z,19.15
2023-08-29T14:40:06.276Z,19.33
2023-08-29T14:42:51.732Z,17.40
2023-08-29T14:45:41.320Z,19.60
2023-08-29T14:48:27.012Z,27.53
2023-08-29T14:51:12.675Z,23.83
2023-08-29T14:54:03.535Z,18.23
2023-08-29T14:56:49.520Z,13.30
2023-08-29T14:59:35.575Z,20.17
2023-08-29T15:02:21.282Z,11.13
2023-08-29T15:05:07.593Z,21.88
2023-08-29T15:07:53.480Z,10.88
2023-08-29T15:10:39.102Z,13.93
2023-08-29T15:13:29.626Z,13.70
2023-08-29T15:16:17.379Z,8.77
2023-08-29T15:19:03.514Z,18.00
2023-08-29T15:21:49.257Z,18.48
2023-08-29T15:24:34.910Z,19.98
2023-08-29T15:27:21.050Z,15.02
2023-08-29T15:30:09.424Z,13.93
2023-08-29T15:32:56.759Z,14.82
2023-08-29T15:35:46.982Z,20.77
2023-08-29T15:38:34.922Z,17.13
2023-08-29T15:41:22.945Z,15.88
2023-08-29T15:44:08.748Z,42.45
2023-08-29T15:46:55.114Z,59.03
2023-08-29T15:49:41.816Z,29.38
2023-08-29T15:52:27.749Z,25.92
2023-08-29T15:55:13.737Z,23.45
2023-08-29T15:58:00.539Z,14.00
2023-08-29T16:00:46.256Z,23.55
2023-08-29T16:03:32.356Z,19.17
2023-08-29T16:06:18.669Z,21.15
2023-08-29T16:09:04.573Z,33.65
2023-08-29T16:11:51.633Z,43.08
2023-08-29T16:14:37.349Z,42.78
2023-08-29T16:17:23.057Z,52.40
2023-08-29T16:20:12.890Z,63.47
2023-08-29T16:22:59.482Z,27.50
2023-08-29T16:25:45.138Z,21.95
2023-08-29T16:28:31.738Z,17.83
2023-08-29T16:31:17.230Z,22.90
2023-08-29T16:34:03.655Z,25.33
2023-08-29T16:36:49.496Z,21.45
2023-08-29T16:39:34.984Z,32.72
2023-08-29T16:42:21.112Z,27.52
2023-08-29T16:45:07.686Z,34.97
2023-08-29T16:47:55.522Z,34.67
2023-08-29T16:50:41.405Z,40.13
2023-08-29T16:53:27.153Z,39.13
2023-08-29T16:56:13.002Z,38.35
2023-08-29T16:59:00.263Z,42.42
2023-08-29T17:01:45.840Z,36.63
2023-08-29T17:04:31.459Z,71.43
2023-08-29T17:07:17.062Z,58.70
2023-08-29T17:10:02.979Z,41.90
2023-08-29T17:12:48.555Z,30.88
2023-08-29T17:15:34.209Z,35.65
2023-08-29T17:18:23.013Z,41.45
2023-08-29T17:21:08.704Z,33.83
2023-08-29T17:23:54.284Z,18.70
2023-08-29T17:26:40.938Z,19.55
2023-08-29T17:29:27.162Z,23.83
2023-08-29T17:32:12.934Z,20.23
2023-08-29T17:34:59.167Z,23.15
2023-08-29T17:37:45.626Z,20.63
2023-08-29T17:40:31.159Z,14.13
2023-08-29T17:43:16.513Z,11.85
2023-08-29T17:46:03.586Z,6.55
2023-08-29T17:48:50.076Z,11.80
2023-08-29T17:51:36.606Z,11.18
2023-08-29T17:54:22.423Z,9.95
2023-08-29T17:57:08.251Z,11.57
2023-08-29T17:59:55.730Z,8.98
2023-08-29T18:02:41.852Z,10.13
2023-08-29T18:05:27.842Z,11.77
2023-08-29T18:08:14.092Z,10.93
2023-08-29T18:11:00.029Z,7.88
2023-08-29T18:13:46.250Z,22.65
2023-08-29T18:16:31.756Z,10.88
2023-08-29T18:19:18.199Z,8.70
2023-08-29T18:22:04.117Z,12.85
2023-08-29T18:24:49.789Z,12.57
2023-08-29T18:27:36.231Z,13.60
2023-08-29T18:30:22.326Z,8.18
2023-08-29T18:33:08.277Z,8.10
2023-08-29T18:35:54.317Z,6.40
2023-08-29T18:38:40.214Z,12.73
2023-08-29T18:41:26.019Z,7.28
2023-08-29T18:44:11.999Z,12.52
2023-08-29T18:46:57.409Z,7.85
2023-08-29T18:49:43.312Z,9.73
2023-08-29T18:52:29.731Z,8.68
2023-08-29T18:55:15.410Z,11.52
2023-08-29T18:58:00.702Z,10.63
2023-08-29T19:00:49.080Z,7.97
2023-08-29T19:03:35.407Z,13.05
2023-08-29T19:06:21.840Z,7.18
2023-08-29T19:09:07.905Z,6.88
2023-08-29T19:11:53.701Z,6.93
2023-08-29T19:14:40.021Z,9.30
2023-08-29T19:17:26.869Z,5.80
2023-08-29T19:20:12.537Z,9.63
2023-08-29T19:22:58.521Z,7.60
2023-08-29T19:25:43.809Z,8.68
2023-08-29T19:28:29.075Z,7.93
2023-08-29T19:31:16.420Z,6.43
2023-08-29T19:34:02.080Z,8.70
2023-08-29T19:36:47.598Z,8.50
2023-08-29T19:39:33.438Z,13.30
2023-08-29T19:42:19.212Z,13.55
2023-08-29T19:45:05.452Z,5.65
2023-08-29T19:47:52.169Z,8.23
2023-08-29T19:50:38.015Z,8.20
2023-08-29T19:53:24.096Z,13.43
2023-08-29T19:56:15.925Z,5.35
2023-08-29T19:59:04.697Z,6.63
2023-08-29T20:01:51.052Z,9.82
2023-08-29T20:04:36.785Z,8.43
2023-08-29T20:07:23.158Z,6.72
2023-08-29T20:10:09.208Z,5.43
2023-08-29T20:12:55.417Z,8.02
2023-08-29T20:15:45.420Z,5.75
2023-08-29T20:18:31.389Z,14.55
2023-08-29T20:21:18.160Z,6.65
2023-08-29T20:24:05.004Z,7.95
2023-08-29T20:26:51.796Z,9.10
2023-08-29T20:29:37.534Z,6.70
2023-08-29T20:32:23.760Z,11.85
2023-08-29T20:35:09.578Z,14.15
2023-08-29T20:37:58.765Z,9.75
2023-08-29T20:40:44.549Z,7.47
2023-08-29T20:43:31.246Z,5.68
2023-08-29T20:46:17.163Z,19.35
2023-08-29T20:49:03.512Z,18.55
2023-08-29T20:51:49.551Z,32.20
2023-08-29T20:54:36.713Z,17.48
2023-08-29T20:57:22.732Z,12.30
2023-08-29T21:00:09.252Z,16.13
2023-08-29T21:02:56.288Z,15.50
2023-08-29T21:05:42.373Z,15.07
2023-08-29T21:08:28.726Z,10.52
2023-08-29T21:11:14.394Z,12.13
2023-08-29T21:14:00.172Z,18.05
2023-08-29T21:16:47.385Z,17.80
2023-08-29T21:19:33.212Z,19.15
2023-08-29T21:22:19.443Z,14.13
2023-08-29T21:25:05.969Z,19.17
2023-08-29T21:27:52.179Z,17.13
2023-08-29T21:30:40.397Z,16.15
2023-08-29T21:33:25.892Z,14.45
2023-08-29T21:36:11.640Z,14.80
2023-08-29T21:39:03.420Z,9.77
2023-08-29T21:41:49.496Z,15.02
2023-08-29T21:44:35.042Z,10.75
2023-08-29T21:47:20.961Z,13.10
2023-08-29T21:50:08.079Z,16.33
2023-08-29T21:52:54.024Z,19.40
2023-08-29T21:55:41.899Z,14.32
2023-08-29T21:58:27.800Z,12.50
2023-08-29T22:01:13.425Z,12.73
2023-08-29T22:03:58.956Z,21.17
2023-08-29T22:06:44.817Z,14.80
2023-08-29T22:09:30.171Z,11.07
2023-08-29T22:12:15.627Z,8.57
2023-08-29T22:15:00.982Z,18.35
2023-08-29T22:17:46.489Z,28.08
2023-08-29T22:20:32.505Z,9.57
2023-08-29T22:23:17.952Z,14.25
2023-08-29T22:26:09.838Z,13.65
2023-08-29T22:28:55.487Z,13.70
2023-08-29T22:31:41.390Z,11.00
2023-08-29T22:34:27.625Z,11.88
2023-08-29T22:37:17.080Z,12.38
2023-08-29T22:40:03.372Z,13.80
2023-08-29T22:42:49.698Z,10.50
2023-08-29T22:45:35.231Z,15.23
2023-08-29T22:48:20.980Z,11.52
2023-08-29T22:51:07.746Z,8.27
2023-08-29T22:53:53.974Z,9.43
2023-08-29T22:56:39.835Z,8.23
2023-08-29T22:59:27.221Z,12.25
2023-08-29T23:02:13.608Z,8.95
2023-08-29T23:04:59.314Z,13.60
2023-08-29T23:07:45.888Z,9.00
2023-08-29T23:10:32.998Z,11.70
2023-08-29T23:13:19.782Z,10.38
2023-08-29T23:16:05.753Z,9.57
2023-08-29T23:18:52.203Z,13.85
2023-08-29T23:21:39.058Z,11.98
2023-08-29T23:24:25.935Z,16.05
2023-08-29T23:27:12.540Z,12.88
2023-08-29T23:29:59.652Z,12.43
2023-08-29T23:32:49.216Z,9.48
2023-08-29T23:35:35.367Z,12.52
2023-08-29T23:38:21.668Z,7.80
2023-08-29T23:41:08.459Z,8.13
2023-08-29T23:43:55.539Z,6.50
2023-08-29T23:46:42.453Z,6.80
2023-08-29T23:49:29.032Z,9.50
2023-08-29T23:52:15.009Z,6.80
2023-08-29T23:55:00.473Z,10.90
